Time;durP1;ratioP1;P1;durP2;ratioP2;P2;SDS_P1;SDS_P2;PMS_P1;PMS_P2;Temp;Humidity;BMP_temperature;BMP_pressure;BME280_temperature;BME280_humidity;BME280_pressure;Samples;Min_cycle;Max_cycle;Signal;HPM_P1;HPM_P2
2023/05/15 00:00:48;;;;;;;5.40;3.20;;;12.80;75.80;;;15.85;49.41;97206.97;4971648;28;20508;-36
2023/05/15 00:03:16;;;;;;;4.45;3.35;;;12.80;75.80;;;15.78;49.50;97201.59;4966287;28;20403;-36
2023/05/15 00:05:44;;;;;;;6.20;3.33;;;12.70;76.10;;;15.75;49.73;97199.31;4972856;28;20046;-36
2023/05/15 00:08:11;;;;;;;3.72;3.22;;;12.70;76.50;;;15.73;49.68;97204.06;4972870;28;20507;-36
2023/05/15 00:10:39;;;;;;;3.60;3.30;;;12.70;76.70;;;15.73;49.53;97207.56;4975454;28;20430;-37
2023/05/15 00:13:17;;;;;;;4.57;3.13;;;12.60;76.60;;;15.72;49.29;97213.94;4958386;28;20051;-36
2023/05/15 00:15:45;;;;;;;3.60;3.13;;;12.60;76.60;;;15.71;49.72;97204.22;4975687;28;20391;-36
2023/05/15 00:18:13;;;;;;;4.85;3.22;;;12.60;76.60;;;15.69;49.77;97208.97;4975902;28;20387;-36
2023/05/15 00:20:40;;;;;;;4.13;3.22;;;12.60;76.90;;;15.68;49.66;97207.34;4975396;28;20043;-36
2023/05/15 00:23:09;;;;;;;5.03;3.30;;;12.60;76.80;;;15.69;49.83;97211.66;4957629;28;20054;-36
2023/05/15 00:25:36;;;;;;;4.75;3.53;;;12.60;76.80;;;15.68;49.74;97204.66;4975206;28;20479;-36
2023/05/15 00:28:04;;;;;;;4.90;3.13;;;12.60;76.70;;;15.68;49.69;97198.44;4973838;28;20057;-36
2023/05/15 00:30:31;;;;;;;4.78;3.47;;;12.60;76.50;;;15.70;49.54;97191.00;4974916;28;20526;-36
2023/05/15 00:32:59;;;;;;;4.45;3.40;;;12.60;76.60;;;15.71;49.57;97200.72;4957426;28;20053;-36
2023/05/15 00:35:27;;;;;;;5.10;3.25;;;12.70;76.60;;;15.73;49.43;97186.09;4957636;28;20292;-36
2023/05/15 00:37:54;;;;;;;5.28;2.85;;;12.70;76.30;;;15.68;49.71;97183.19;4974504;28;20054;-36
2023/05/15 00:40:24;;;;;;;3.67;3.03;;;12.60;76.30;;;15.68;49.56;97185.03;4956837;28;20050;-36
2023/05/15 00:42:53;;;;;;;5.43;3.55;;;12.60;76.30;;;15.71;49.32;97180.06;4973954;28;20102;-36
2023/05/15 00:45:22;;;;;;;3.92;3.50;;;12.70;76.00;;;15.77;49.25;97185.69;4973732;28;20039;-36
2023/05/15 00:47:50;;;;;;;4.80;3.72;;;12.80;75.30;;;15.83;49.33;97187.56;4974641;28;20031;-36
2023/05/15 00:50:19;;;;;;;5.50;3.60;;;12.90;75.10;;;15.83;49.11;97190.22;4974633;28;20046;-36
2023/05/15 00:52:48;;;;;;;5.15;3.45;;;12.90;74.70;;;15.84;49.14;97190.03;4964685;28;20054;-36
2023/05/15 00:55:15;;;;;;;4.45;3.10;;;12.90;74.40;;;15.87;49.19;97194.16;4974679;28;20495;-36
2023/05/15 00:57:44;;;;;;;4.95;3.33;;;12.90;74.00;;;15.80;49.17;97188.78;4956981;28;20050;-36
2023/05/15 01:00:15;;;;;;;3.53;2.95;;;12.90;74.60;;;15.80;49.05;97187.94;4957292;28;20073;-36
2023/05/15 01:02:43;;;;;;;3.85;3.05;;;12.90;74.60;;;15.82;49.11;97184.06;4956956;28;20434;-36
2023/05/15 01:05:11;;;;;;;5.13;3.22;;;12.80;74.50;;;15.74;49.38;97186.91;4957017;28;20061;-36
2023/05/15 01:07:51;;;;;;;4.28;3.53;;;12.70;75.10;;;15.69;49.55;97192.88;4973493;28;20027;-36
2023/05/15 01:10:20;;;;;;;4.53;3.50;;;12.70;76.50;;;15.70;49.68;97191.00;4949642;28;20043;-36
2023/05/15 01:12:51;;;;;;;5.88;3.10;;;12.60;75.90;;;15.66;49.74;97201.31;4956431;28;20118;-36
2023/05/15 01:15:19;;;;;;;4.88;3.42;;;12.60;76.10;;;15.64;49.87;97205.25;4956939;28;20498;-36
2023/05/15 01:17:48;;;;;;;5.45;3.83;;;12.60;76.60;;;15.68;49.73;97203.81;4974243;28;20047;-36
2023/05/15 01:20:17;;;;;;;4.10;3.58;;;12.60;76.50;;;15.73;49.73;97207.56;4956372;28;20061;-36
2023/05/15 01:23:14;;;;;;;4.05;3.50;;;12.70;76.50;;;15.68;49.91;97207.34;4973173;28;20074;-36
2023/05/15 01:26:18;;;;;;;4.20;3.45;;;12.60;76.70;;;15.70;49.75;97202.59;4964894;28;20422;-36
2023/05/15 01:29:28;;;;;;;4.90;3.90;;;12.60;76.70;;;15.61;49.96;97209.19;4952606;28;20050;-36
2023/05/15 01:32:02;;;;;;;4.47;3.00;;;12.50;77.80;;;15.65;49.96;97202.38;4970835;28;20499;-36
2023/05/15 01:34:47;;;;;;;4.90;3.80;;;12.50;78.10;;;15.64;50.17;97202.56;4956173;28;20046;-36
2023/05/15 01:37:21;;;;;;;4.47;3.70;;;12.50;78.60;;;15.63;50.53;97198.25;4972369;28;20054;-36
2023/05/15 01:39:53;;;;;;;6.78;3.67;;;12.40;79.00;;;15.64;50.45;97194.50;4972531;28;20051;-36
2023/05/15 01:42:26;;;;;;;4.35;3.30;;;12.50;79.10;;;15.65;50.44;97194.31;4972682;28;20058;-36
2023/05/15 01:44:56;;;;;;;5.13;3.92;;;12.50;79.60;;;15.63;50.46;97201.75;4972966;28;20051;-36
2023/05/15 01:47:40;;;;;;;5.53;3.60;;;12.50;79.70;;;15.62;50.50;97200.06;4956213;28;20058;-36
2023/05/15 01:50:14;;;;;;;5.18;3.72;;;12.50;80.10;;;15.58;50.46;97206.06;4972797;28;20055;-36
2023/05/15 01:52:49;;;;;;;4.93;3.92;;;12.40;79.80;;;15.52;50.90;97202.34;4971476;28;20053;-36
2023/05/15 01:55:19;;;;;;;5.03;4.05;;;12.30;80.40;;;15.42;50.89;97202.72;4972391;28;20042;-36
2023/05/15 01:57:49;;;;;;;4.43;3.83;;;12.20;81.20;;;15.38;51.13;97196.13;4972740;28;20059;-36
2023/05/15 02:00:17;;;;;;;5.45;4.13;;;12.20;81.30;;;15.33;51.27;97196.75;4955509;28;20054;-36
2023/05/15 02:02:46;;;;;;;5.28;3.88;;;12.10;81.60;;;15.28;51.27;97199.19;4972628;28;20079;-36
2023/05/15 02:05:15;;;;;;;4.60;3.78;;;12.10;82.00;;;15.26;51.40;97192.38;4956009;28;20050;-36
2023/05/15 02:07:44;;;;;;;5.70;4.40;;;12.10;82.00;;;15.19;51.31;97194.22;4955356;28;20054;-36
2023/05/15 02:10:12;;;;;;;4.90;4.15;;;12.10;82.20;;;15.19;51.58;97194.22;4955781;28;20046;-36
2023/05/15 02:12:41;;;;;;;5.15;3.90;;;12.10;82.10;;;15.19;51.50;97186.16;4956299;28;20427;-36
2023/05/15 02:15:10;;;;;;;5.32;3.45;;;12.10;81.90;;;15.18;51.50;97195.22;4972165;28;20090;-36
2023/05/15 02:17:38;;;;;;;5.60;3.75;;;12.10;82.10;;;15.11;51.68;97190.66;4973243;28;20055;-36
2023/05/15 02:20:07;;;;;;;5.72;4.00;;;12.00;82.80;;;15.06;51.89;97198.50;4955805;28;20081;-36
2023/05/15 02:22:37;;;;;;;5.30;3.67;;;11.90;83.10;;;15.06;51.94;97193.16;4955179;28;20055;-36
2023/05/15 02:25:05;;;;;;;4.80;3.90;;;12.00;83.40;;;15.05;51.93;97196.03;4963260;28;20055;-36
2023/05/15 02:27:58;;;;;;;4.93;4.50;;;12.00;83.70;;;15.02;51.96;97194.56;4972512;28;20050;-36
2023/05/15 02:30:45;;;;;;;5.63;4.00;;;12.00;83.60;;;14.92;52.39;97196.78;4955519;28;20046;-36
2023/05/15 02:33:49;;;;;;;4.80;3.58;;;11.90;84.20;;;14.87;52.60;97194.72;4971620;28;20043;-36
2023/05/15 02:36:22;;;;;;;4.53;3.65;;;11.90;85.10;;;14.90;52.57;97196.16;4955054;28;20049;-36
2023/05/15 02:38:52;;;;;;;5.63;4.07;;;11.80;85.50;;;14.91;52.54;97195.97;4955203;28;20078;-36
2023/05/15 02:41:21;;;;;;;5.53;4.13;;;11.80;85.90;;;14.92;52.66;97199.47;4971341;28;20750;-36
2023/05/15 02:43:51;;;;;;;4.72;4.00;;;11.80;86.10;;;14.94;52.50;97200.91;4955073;28;20541;-36
2023/05/15 02:46:19;;;;;;;5.25;4.13;;;11.90;86.80;;;14.99;52.52;97194.16;4954480;28;20054;-36
2023/05/15 02:48:49;;;;;;;5.07;4.32;;;11.90;85.90;;;15.01;52.47;97192.09;4954754;28;20058;-36
2023/05/15 02:51:17;;;;;;;5.60;3.90;;;11.90;85.80;;;15.09;52.54;97183.88;4971181;28;20420;-36
2023/05/15 02:53:45;;;;;;;5.78;4.32;;;12.00;85.80;;;15.14;52.62;97184.91;4954868;28;20090;-36
2023/05/15 02:56:12;;;;;;;5.93;4.55;;;12.10;85.60;;;15.22;52.47;97193.78;4970975;28;20529;-36
2023/05/15 02:58:41;;;;;;;6.40;4.72;;;12.20;85.30;;;15.26;52.45;97190.53;4972141;28;20438;-36
2023/05/15 03:01:08;;;;;;;6.55;5.55;;;12.30;85.20;;;15.26;52.59;97200.44;4954650;28;20507;-36
2023/05/15 03:03:36;;;;;;;7.07;5.68;;;12.30;85.50;;;15.22;53.07;97201.84;4955122;28;20051;-36
2023/05/15 03:06:03;;;;;;;5.70;5.07;;;12.20;86.00;;;15.17;53.20;97197.09;4972144;28;20046;-36
2023/05/15 03:08:31;;;;;;;5.82;5.22;;;12.20;86.90;;;15.14;53.08;97198.31;4952184;28;20054;-36
2023/05/15 03:10:58;;;;;;;6.75;4.95;;;12.10;86.90;;;15.12;53.39;97194.16;4972379;28;20061;-36
2023/05/15 03:13:26;;;;;;;6.53;5.07;;;12.10;87.20;;;15.09;53.57;97190.03;4964376;28;20054;-36
2023/05/15 03:15:53;;;;;;;5.45;4.50;;;12.10;88.00;;;15.15;53.55;97205.31;4970853;28;20063;-36
2023/05/15 03:18:21;;;;;;;5.80;5.07;;;12.20;88.20;;;15.17;53.80;97199.78;4962479;28;20062;-36
2023/05/15 03:20:52;;;;;;;6.95;4.85;;;12.20;88.40;;;15.22;53.41;97191.97;4970762;28;20438;-36
2023/05/15 03:23:19;;;;;;;5.88;5.38;;;12.20;88.60;;;15.26;53.24;97192.38;4971015;28;20507;-36
2023/05/15 03:25:47;;;;;;;5.75;4.38;;;12.30;88.60;;;15.21;53.89;97201.00;4954163;28;20059;-36
2023/05/15 03:28:14;;;;;;;6.13;4.50;;;12.20;89.00;;;15.21;53.97;97194.84;4972008;28;20054;-36
2023/05/15 03:30:45;;;;;;;5.90;5.05;;;12.20;89.30;;;15.12;54.47;97202.22;4972274;28;20046;-36
2023/05/15 03:33:12;;;;;;;6.38;4.30;;;12.20;90.70;;;15.14;54.24;97184.06;4954436;28;20070;-36
2023/05/15 03:35:40;;;;;;;5.85;4.90;;;12.20;91.30;;;15.19;54.12;97191.53;4954549;28;20053;-36
2023/05/15 03:38:07;;;;;;;7.95;5.25;;;12.20;91.30;;;15.19;53.98;97192.34;4977654;28;20066;-36
2023/05/15 03:40:38;;;;;;;7.03;5.28;;;12.20;91.80;;;15.03;54.76;97192.72;4978024;28;20506;-36
2023/05/15 03:43:06;;;;;;;6.60;4.90;;;12.10;93.00;;;15.09;54.42;97195.41;4978344;28;20046;-36
2023/05/15 03:45:34;;;;;;;7.35;5.40;;;12.20;93.70;;;15.13;54.58;97188.63;4960828;28;20506;-36
2023/05/15 03:48:01;;;;;;;7.63;5.25;;;12.10;94.00;;;15.05;54.74;97187.97;4978087;28;20058;-36
2023/05/15 03:50:30;;;;;;;8.23;5.15;;;12.00;94.60;;;15.02;54.77;97194.56;4970401;28;20046;-36
2023/05/15 03:52:59;;;;;;;6.28;5.45;;;12.00;95.60;;;14.96;54.99;97182.78;4978069;28;20466;-36
2023/05/15 03:55:26;;;;;;;7.18;5.38;;;11.90;96.60;;;14.91;55.01;97187.09;4960994;28;20142;-36
2023/05/15 03:57:54;;;;;;;6.65;5.55;;;11.80;97.30;;;14.91;55.03;97193.28;4960599;28;20050;-36
2023/05/15 04:00:22;;;;;;;7.47;5.70;;;11.90;98.30;;;14.92;55.00;97186.06;4976688;28;20054;-36
2023/05/15 04:02:50;;;;;;;7.28;4.88;;;11.90;98.20;;;14.84;55.46;97194.28;4977161;28;20426;-36
2023/05/15 04:05:18;;;;;;;6.47;5.13;;;11.80;98.70;;;14.80;55.41;97188.50;4968658;28;20050;-36
2023/05/15 04:07:46;;;;;;;7.53;4.78;;;11.80;99.90;;;14.85;55.60;97194.09;4978206;28;20392;-36
2023/05/15 04:10:14;;;;;;;5.43;4.87;;;11.80;99.80;;;14.87;55.54;97193.88;4977873;28;20050;-36
2023/05/15 04:12:41;;;;;;;6.10;5.20;;;11.90;99.60;;;14.86;55.71;97195.72;4977888;28;20047;-36
2023/05/15 04:15:20;;;;;;;6.60;5.50;;;11.90;99.90;;;14.90;55.62;97205.03;4977606;28;20054;-36
2023/05/15 04:17:52;;;;;;;6.68;5.07;;;11.90;99.90;;;14.89;55.65;97208.75;4976292;28;20051;-36
2023/05/15 04:20:23;;;;;;;7.15;4.93;;;11.90;99.90;;;14.74;56.15;97202.69;4977694;28;20043;-36
2023/05/15 04:22:51;;;;;;;6.85;5.78;;;11.80;99.90;;;14.83;55.92;97201.50;4978071;28;20043;-36
2023/05/15 04:25:19;;;;;;;6.53;5.50;;;11.90;99.90;;;14.86;55.99;97202.94;4977942;28;20042;-36
2023/05/15 04:27:48;;;;;;;7.72;4.97;;;11.90;99.90;;;14.83;56.13;97198.81;4977664;28;20053;-36
2023/05/15 04:30:15;;;;;;;8.25;6.05;;;11.90;99.90;;;14.88;55.96;97198.22;4976632;28;20490;-36
2023/05/15 04:32:43;;;;;;;8.45;5.78;;;11.90;99.90;;;14.97;55.72;97197.03;4977850;28;20065;-36
2023/05/15 04:35:12;;;;;;;6.32;5.22;;;12.00;99.90;;;15.05;55.55;97204.88;4968817;28;20043;-36
2023/05/15 04:37:41;;;;;;;7.90;5.60;;;12.10;99.90;;;15.09;55.61;97199.94;4977482;28;20054;-36
2023/05/15 04:40:09;;;;;;;8.00;5.72;;;12.10;99.90;;;15.03;55.85;97195.41;4977512;28;20062;-36
2023/05/15 04:42:37;;;;;;;8.15;5.68;;;12.00;99.90;;;15.08;55.53;97199.13;4977946;28;20035;-36
2023/05/15 04:45:08;;;;;;;7.50;5.88;;;12.00;99.90;;;14.94;56.28;97200.09;4977521;28;20043;-36
2023/05/15 04:47:36;;;;;;;8.43;5.60;;;12.00;99.90;;;14.90;56.48;97198.84;4976766;28;20054;-36
2023/05/15 04:50:04;;;;;;;7.43;5.70;;;12.00;99.90;;;14.99;56.30;97197.66;4973598;28;20415;-36
2023/05/15 04:52:32;;;;;;;6.90;6.05;;;12.00;99.90;;;15.07;56.12;97191.28;4966771;28;20054;-36
2023/05/15 04:54:59;;;;;;;8.73;5.75;;;12.10;99.90;;;15.05;56.01;97202.19;4974699;28;20523;-36
2023/05/15 04:57:27;;;;;;;6.80;5.10;;;12.20;99.90;;;15.11;55.85;97204.06;4974241;28;20513;-36
2023/05/15 04:59:54;;;;;;;7.75;5.53;;;12.20;99.90;;;15.09;56.05;97200.78;4974330;28;20050;-36
2023/05/15 05:02:23;;;;;;;6.15;5.32;;;12.20;99.90;;;15.15;56.14;97199.97;4974608;28;20407;-36
2023/05/15 05:04:50;;;;;;;6.57;5.10;;;12.30;99.90;;;15.06;56.23;97192.31;4973248;28;20526;-36
2023/05/15 05:07:18;;;;;;;7.88;6.05;;;12.20;99.90;;;15.17;56.11;97197.09;4974174;28;20130;-36
2023/05/15 05:09:45;;;;;;;7.25;5.65;;;12.30;99.90;;;15.11;56.61;97192.53;4957027;28;20039;-36
2023/05/15 05:12:13;;;;;;;9.80;6.55;;;12.30;99.90;;;15.06;56.71;97198.50;4974273;28;20046;-36
2023/05/15 05:14:43;;;;;;;9.25;6.43;;;12.20;99.90;;;15.13;56.66;97199.34;4973749;28;20057;-36
2023/05/15 05:17:11;;;;;;;7.45;5.95;;;12.30;99.90;;;15.18;56.54;97201.44;4974142;28;20087;-36
2023/05/15 05:19:38;;;;;;;8.18;5.78;;;12.30;99.90;;;15.05;57.06;97204.06;4974201;28;20427;-36
2023/05/15 05:22:06;;;;;;;8.02;6.38;;;12.30;99.90;;;15.03;57.09;97204.25;4964541;28;20054;-36
2023/05/15 05:24:36;;;;;;;7.65;6.22;;;12.30;99.90;;;14.98;57.47;97203.19;4974107;28;20066;-36
2023/05/15 05:27:04;;;;;;;7.45;5.88;;;12.30;99.90;;;14.97;57.53;97202.38;4957124;28;20054;-36
2023/05/15 05:29:32;;;;;;;8.15;5.43;;;12.30;99.90;;;15.11;57.10;97197.91;4973331;28;20395;-36
2023/05/15 05:32:00;;;;;;;7.75;5.95;;;12.40;99.90;;;15.25;56.55;97213.00;4973903;28;20042;-36
2023/05/15 05:34:27;;;;;;;8.73;7.05;;;12.60;99.90;;;15.19;57.09;97212.97;4972649;28;20038;-36
2023/05/15 05:36:55;;;;;;;8.77;6.57;;;12.60;99.90;;;15.19;57.03;97216.47;4973713;28;20418;-36
2023/05/15 05:39:22;;;;;;;8.45;6.28;;;12.50;99.90;;;15.02;57.52;97218.69;4973568;28;20058;-36
2023/05/15 05:41:50;;;;;;;7.32;5.95;;;12.50;99.90;;;15.18;56.85;97216.66;4973795;28;20050;-36
2023/05/15 05:44:18;;;;;;;8.75;5.85;;;12.50;99.90;;;15.22;56.84;97215.25;4964550;28;20042;-36
2023/05/15 05:46:45;;;;;;;6.85;5.45;;;12.60;99.90;;;14.99;57.24;97220.94;4973390;28;20552;-36
2023/05/15 05:49:13;;;;;;;7.72;5.63;;;12.60;99.90;;;14.89;57.72;97216.78;4972536;28;20490;-36
2023/05/15 05:51:40;;;;;;;6.95;5.35;;;12.50;99.90;;;14.96;57.72;97214.94;4973583;28;20046;-36
2023/05/15 05:54:08;;;;;;;7.22;5.45;;;12.60;99.90;;;14.94;57.73;97221.53;4973609;28;20434;-36
2023/05/15 05:56:35;;;;;;;7.75;5.95;;;12.60;99.90;;;14.91;57.64;97220.09;4948548;28;20054;-36
2023/05/15 05:59:05;;;;;;;6.82;5.78;;;12.60;99.30;;;15.07;57.24;97220.78;4963834;28;20513;-36
2023/05/15 06:01:32;;;;;;;6.78;5.50;;;12.60;99.40;;;15.15;57.03;97221.41;4973137;28;20053;-36
2023/05/15 06:04:00;;;;;;;7.38;5.60;;;12.70;99.30;;;15.25;56.98;97215.66;4972085;28;20423;-36
2023/05/15 06:06:28;;;;;;;7.63;6.30;;;12.80;99.10;;;15.13;57.07;97218.09;4973072;28;20057;-36
2023/05/15 06:08:56;;;;;;;8.35;5.50;;;12.80;98.10;;;15.24;56.98;97219.41;4970471;28;20043;-36
2023/05/15 06:11:23;;;;;;;9.70;6.07;;;12.90;98.20;;;15.39;56.63;97213.84;4971883;28;20091;-36
2023/05/15 06:13:52;;;;;;;6.25;5.38;;;12.90;98.20;;;15.44;56.43;97216.75;4973164;28;20039;-36
2023/05/15 06:16:20;;;;;;;8.23;5.40;;;13.00;98.00;;;15.52;56.42;97219.25;4973100;28;20042;-36
2023/05/15 06:18:47;;;;;;;7.70;5.60;;;13.00;96.80;;;15.46;56.40;97224.63;4973072;28;20076;-36
2023/05/15 06:21:15;;;;;;;6.95;4.57;;;13.00;96.50;;;15.54;56.23;97222.56;4972969;28;20046;-36
2023/05/15 06:23:43;;;;;;;5.78;4.90;;;13.10;97.30;;;15.69;55.98;97226.94;4973090;28;20494;-36
2023/05/15 06:26:10;;;;;;;6.80;4.93;;;13.20;96.70;;;15.82;55.80;97216.25;4973012;28;20042;-36
2023/05/15 06:28:38;;;;;;;6.60;5.05;;;13.30;97.20;;;16.01;55.70;97217.28;4963684;28;20043;-36
2023/05/15 06:31:05;;;;;;;7.05;5.18;;;13.40;96.10;;;15.64;56.17;97219.47;4972927;28;20383;-36
2023/05/15 06:33:33;;;;;;;7.40;4.95;;;13.30;95.70;;;15.72;55.75;97221.16;4972943;28;20034;-36
2023/05/15 06:36:01;;;;;;;6.35;5.10;;;13.30;94.50;;;15.89;55.41;97225.13;4972720;28;20043;-36
2023/05/15 06:38:28;;;;;;;5.78;4.85;;;13.30;94.70;;;15.80;55.86;97220.16;4973245;28;20046;-36
2023/05/15 06:40:56;;;;;;;5.97;4.68;;;13.40;95.50;;;15.87;55.57;97235.25;4963131;28;20308;-36
2023/05/15 06:43:23;;;;;;;8.30;5.53;;;13.40;95.60;;;15.83;55.47;97223.25;4972628;28;20077;-36
2023/05/15 06:45:51;;;;;;;7.07;5.40;;;13.50;94.00;;;15.90;55.33;97226.78;4972934;28;20549;-37
2023/05/15 06:48:18;;;;;;;6.72;4.72;;;13.50;94.30;;;16.06;54.93;97230.91;4972552;28;20054;-37
2023/05/15 06:50:47;;;;;;;7.72;4.82;;;13.60;93.40;;;16.01;54.93;97230.69;4972149;28;20039;-36
2023/05/15 06:53:16;;;;;;;6.90;4.82;;;13.60;92.70;;;16.03;54.71;97234.03;4972315;28;20050;-37
2023/05/15 06:55:43;;;;;;;7.00;4.90;;;13.60;92.10;;;16.04;54.84;97230.31;4972525;28;20057;-37
2023/05/15 06:58:11;;;;;;;6.95;5.28;;;13.70;92.60;;;16.06;55.32;97230.09;4972441;28;20049;-37
2023/05/15 07:00:39;;;;;;;5.63;4.57;;;13.70;93.30;;;16.14;54.94;97235.25;4972248;28;20046;-36
2023/05/15 07:03:06;;;;;;;6.05;4.70;;;13.80;92.50;;;16.00;55.56;97230.94;4972328;28;20050;-36
2023/05/15 07:05:34;;;;;;;6.18;4.72;;;13.70;92.90;;;16.10;55.20;97232.16;4972218;28;20057;-37
2023/05/15 07:08:02;;;;;;;6.00;4.47;;;13.80;93.90;;;15.99;55.21;97234.63;4972239;28;20038;-36
2023/05/15 07:10:29;;;;;;;5.63;4.10;;;13.80;90.80;;;16.03;54.59;97230.50;4971881;28;20070;-36
2023/05/15 07:12:57;;;;;;;6.22;4.55;;;13.80;89.70;;;15.87;55.19;97226.38;4971434;28;20046;-37
2023/05/15 07:15:24;;;;;;;6.70;4.15;;;13.80;90.50;;;16.16;54.60;97227.81;4971184;28;20141;-36
2023/05/15 07:17:52;;;;;;;5.63;4.65;;;13.90;90.00;;;16.29;54.35;97229.69;4971984;28;20059;-37
2023/05/15 07:20:19;;;;;;;5.38;4.63;;;13.90;90.40;;;16.28;54.16;97233.41;4970609;28;20498;-36
2023/05/15 07:22:47;;;;;;;6.43;4.40;;;14.00;89.50;;;16.31;53.88;97228.44;4972241;28;20050;-37
2023/05/15 07:25:24;;;;;;;4.72;4.18;;;14.10;88.20;;;16.32;54.07;97219.38;4971867;28;20062;-36
2023/05/15 07:27:52;;;;;;;5.50;4.18;;;14.10;88.50;;;16.43;53.85;97228.63;4954949;28;20422;-36
2023/05/15 07:30:20;;;;;;;5.57;4.07;;;14.10;88.50;;;16.19;54.14;97222.06;4971577;28;20047;-36
2023/05/15 07:32:47;;;;;;;5.28;4.22;;;14.10;87.50;;;16.47;54.04;97223.66;4972099;28;20054;-36
2023/05/15 07:35:15;;;;;;;6.35;3.58;;;14.10;88.60;;;16.73;53.53;97230.88;4971734;28;20047;-37
2023/05/15 07:37:43;;;;;;;5.93;4.40;;;14.30;89.00;;;16.90;53.10;97229.41;4971980;28;20517;-37
2023/05/15 07:40:11;;;;;;;5.80;4.50;;;14.50;87.60;;;16.54;53.67;97236.06;4970668;28;20043;-36
2023/05/15 07:42:38;;;;;;;4.90;3.85;;;14.40;87.00;;;16.84;53.45;97224.03;4970487;28;20050;-36
2023/05/15 07:45:08;;;;;;;7.43;4.82;;;14.50;87.80;;;16.98;52.91;97222.94;4971714;28;20047;-36
2023/05/15 07:47:35;;;;;;;5.28;4.22;;;14.60;87.00;;;17.02;52.64;97229.56;4970364;28;20054;-36
2023/05/15 07:50:03;;;;;;;4.03;3.40;;;14.60;86.60;;;17.03;52.22;97235.78;4971716;28;20054;-36
2023/05/15 07:52:31;;;;;;;5.50;3.80;;;14.70;84.40;;;17.14;52.22;97235.13;4971637;28;20043;-37
2023/05/15 07:54:58;;;;;;;5.38;4.00;;;14.80;84.50;;;16.93;52.66;97231.66;4971849;28;20054;-37
2023/05/15 07:57:26;;;;;;;4.82;3.90;;;14.70;84.50;;;17.02;52.46;97226.88;4953874;28;20077;-37
2023/05/15 07:59:54;;;;;;;5.88;3.85;;;14.70;84.60;;;17.20;52.11;97228.06;4954363;28;20057;-36
2023/05/15 08:02:22;;;;;;;4.88;3.80;;;14.80;84.70;;;17.38;52.01;97227.34;4971503;28;20104;-36
2023/05/15 08:04:50;;;;;;;4.90;3.97;;;14.90;85.10;;;17.35;52.32;97217.00;4971745;28;20495;-36
2023/05/15 08:07:18;;;;;;;4.22;3.78;;;15.00;85.00;;;17.45;52.10;97218.19;4971581;28;20422;-36
2023/05/15 08:09:45;;;;;;;4.45;3.78;;;15.00;84.10;;;17.43;52.12;97220.28;4971545;28;20035;-37
2023/05/15 08:12:20;;;;;;;4.60;3.58;;;15.10;84.10;;;17.70;51.86;97220.13;4971657;28;20043;-36
2023/05/15 08:14:54;;;;;;;4.63;3.63;;;15.30;84.00;;;17.75;51.09;97228.38;4963876;28;20467;-37
2023/05/15 08:17:23;;;;;;;4.18;3.50;;;15.40;82.10;;;17.56;51.49;97218.53;4971513;28;20046;-37
2023/05/15 08:19:51;;;;;;;6.43;4.28;;;15.40;81.10;;;17.89;50.87;97229.13;4971403;28;20054;-36
2023/05/15 08:22:19;;;;;;;4.18;3.78;;;15.50;81.90;;;17.86;51.37;97218.81;4971792;28;20494;-37
2023/05/15 08:24:47;;;;;;;5.88;4.72;;;15.60;81.50;;;17.94;50.60;97225.81;4975067;28;20046;-37
2023/05/15 08:27:15;;;;;;;4.90;4.30;;;15.60;79.00;;;17.95;51.00;97228.28;4974485;28;20047;-37
2023/05/15 08:29:42;;;;;;;4.85;3.88;;;15.70;80.80;;;17.94;51.01;97226.63;4974974;28;20510;-37
2023/05/15 08:32:10;;;;;;;4.65;3.97;;;15.60;79.50;;;18.08;50.39;97227.34;4975058;28;20105;-36
2023/05/15 08:34:38;;;;;;;4.82;3.75;;;15.70;80.30;;;18.23;49.99;97232.41;4974947;28;20050;-37
2023/05/15 08:37:05;;;;;;;5.97;3.47;;;15.80;78.80;;;18.26;49.22;97232.81;4974879;28;20039;-36
2023/05/15 08:39:33;;;;;;;5.05;4.22;;;15.70;77.40;;;18.22;48.79;97230.75;4973460;28;20054;-37
2023/05/15 08:42:19;;;;;;;4.65;3.53;;;15.70;76.60;;;18.12;49.35;97230.44;4975083;28;20055;-37
2023/05/15 08:44:47;;;;;;;4.93;4.32;;;15.60;78.10;;;18.14;49.24;97233.72;4973758;28;20388;-37
2023/05/15 08:47:15;;;;;;;5.10;4.00;;;15.60;78.10;;;18.20;49.49;97238.22;4974714;28;20073;-37
2023/05/15 08:50:06;;;;;;;4.47;3.88;;;15.80;78.20;;;18.25;49.69;97230.31;4973285;28;20043;-36
2023/05/15 08:52:34;;;;;;;3.90;3.58;;;15.80;77.80;;;18.44;49.42;97225.81;4956468;28;20055;-36
2023/05/15 08:55:03;;;;;;;6.05;3.30;;;16.00;78.00;;;18.22;49.53;97231.59;4974516;28;20399;-37
2023/05/15 08:57:32;;;;;;;4.35;3.65;;;15.90;77.20;;;18.22;49.48;97228.06;4974596;28;20069;-37
2023/05/15 09:00:01;;;;;;;4.15;3.67;;;15.90;76.90;;;18.32;49.09;97214.94;4974435;28;20442;-37
2023/05/15 09:02:29;;;;;;;6.25;4.30;;;15.90;76.20;;;18.24;49.44;97220.56;4965540;28;20502;-37
2023/05/15 09:04:56;;;;;;;5.93;3.92;;;15.80;77.60;;;18.18;49.61;97216.88;4974127;28;20039;-37
2023/05/15 09:07:24;;;;;;;4.72;3.80;;;15.70;77.80;;;18.01;49.83;97213.94;4957023;28;20503;-37
2023/05/15 09:09:53;;;;;;;7.65;4.10;;;15.60;77.60;;;18.08;49.73;97220.06;4970498;28;20511;-37
2023/05/15 09:12:24;;;;;;;5.25;4.60;;;15.60;78.70;;;18.09;49.53;97218.22;4973133;28;20050;-37
2023/05/15 09:15:11;;;;;;;5.57;3.90;;;15.60;77.60;;;17.85;49.99;97214.47;4974661;28;20039;-37
2023/05/15 09:17:39;;;;;;;4.63;4.13;;;15.50;78.30;;;18.08;49.91;97208.47;4973110;28;20418;-37
2023/05/15 09:20:22;;;;;;;4.60;4.10;;;15.60;79.00;;;18.26;49.71;97203.16;4974208;28;20050;-37
2023/05/15 09:22:50;;;;;;;4.18;3.78;;;15.70;79.20;;;18.31;49.90;97207.88;4973310;28;20400;-37
2023/05/15 09:25:43;;;;;;;7.72;4.55;;;15.80;78.30;;;18.24;49.57;97202.56;4974440;28;20055;-37
2023/05/15 09:28:30;;;;;;;4.72;3.78;;;15.90;76.40;;;18.09;48.74;97205.56;4969181;28;20053;-37
2023/05/15 09:31:04;;;;;;;5.85;3.70;;;15.80;73.60;;;17.71;49.00;97198.34;4967646;28;20046;-37
2023/05/15 09:33:36;;;;;;;5.13;4.00;;;15.70;73.10;;;17.95;48.74;97206.75;4974106;28;20039;-37
2023/05/15 09:36:06;;;;;;;4.43;4.00;;;15.80;72.90;;;18.27;48.56;97203.97;4956290;28;20503;-37
2023/05/15 09:38:42;;;;;;;4.88;3.80;;;15.80;73.50;;;18.35;48.25;97198.31;4973524;28;20043;-37
2023/05/15 09:41:10;;;;;;;4.88;3.95;;;15.90;75.00;;;18.30;48.26;97204.38;4956580;28;20047;-37
2023/05/15 09:43:39;;;;;;;4.75;3.50;;;16.10;72.70;;;18.49;48.16;97199.00;4973877;28;20515;-37
2023/05/15 09:46:08;;;;;;;5.07;4.05;;;16.10;72.10;;;18.55;47.99;97200.78;4973919;28;20047;-36
2023/05/15 09:48:36;;;;;;;5.53;4.57;;;16.20;72.20;;;18.64;48.00;97202.16;4955529;28;20058;-37
2023/05/15 09:51:13;;;;;;;5.72;4.65;;;16.30;72.00;;;18.22;48.15;97195.72;4973698;28;20047;-37
2023/05/15 09:53:40;;;;;;;5.20;4.28;;;16.20;71.10;;;18.46;47.63;97189.50;4956822;28;20046;-37
2023/05/15 09:56:09;;;;;;;6.22;4.35;;;16.30;70.50;;;18.60;48.40;97189.34;4972407;28;20046;-37
2023/05/15 09:58:36;;;;;;;4.38;3.92;;;16.50;71.80;;;18.72;47.65;97184.03;4973108;28;20054;-37
2023/05/15 10:01:10;;;;;;;6.82;5.10;;;16.70;70.50;;;18.86;47.59;97181.00;4972091;28;20422;-37
2023/05/15 10:03:42;;;;;;;6.65;4.05;;;16.70;70.60;;;18.75;47.45;97180.91;4973406;28;20054;-37
2023/05/15 10:06:17;;;;;;;5.88;4.45;;;16.80;68.40;;;18.55;47.29;97191.88;4956786;28;20119;-37
2023/05/15 10:08:56;;;;;;;4.78;3.25;;;16.60;68.50;;;18.76;47.80;97177.16;4972930;28;20050;-37
2023/05/15 10:11:24;;;;;;;4.13;3.25;;;16.70;70.50;;;18.95;45.74;97173.44;4973380;28;20043;-37
2023/05/15 10:13:52;;;;;;;5.05;3.65;;;16.80;64.90;;;19.14;45.21;97170.72;4973280;28;20525;-37
2023/05/15 10:16:21;;;;;;;4.25;3.30;;;16.90;65.80;;;19.17;45.66;97173.75;4963698;28;20046;-37
2023/05/15 10:18:51;;;;;;;5.45;3.50;;;16.90;66.80;;;18.97;45.28;97167.81;4955404;28;20046;-37
2023/05/15 10:21:21;;;;;;;4.88;3.50;;;17.00;65.10;;;19.06;44.97;97161.06;4973225;28;20055;-37
2023/05/15 10:23:49;;;;;;;4.65;3.85;;;17.00;64.70;;;19.33;44.30;97156.13;4973490;28;20103;-36
2023/05/15 10:26:23;;;;;;;6.18;3.47;;;17.10;64.00;;;19.46;44.35;97163.22;4972905;28;20042;-36
2023/05/15 10:28:51;;;;;;;4.50;3.20;;;17.20;62.90;;;19.59;44.29;97160.31;4972666;28;20368;-36
2023/05/15 10:31:19;;;;;;;5.22;3.40;;;17.30;63.90;;;19.63;44.31;97149.88;4971605;28;20050;-36